createdAt,value
2022-09-28T00:01:09.099Z,0.40
2022-09-28T00:03:36.679Z,0.50
2022-09-28T00:06:06.016Z,1.07
2022-09-28T00:08:34.895Z,0.40
2022-09-28T00:11:03.078Z,0.50
2022-09-28T00:13:31.563Z,0.50
2022-09-28T00:16:07.028Z,0.40
2022-09-28T00:18:34.348Z,0.40
2022-09-28T00:21:12.828Z,0.50
2022-09-28T00:23:59.195Z,0.57
2022-09-28T00:26:26.825Z,0.40
2022-09-28T00:28:54.496Z,0.40
2022-09-28T00:31:21.454Z,0.50
2022-09-28T00:33:58.424Z,0.50
2022-09-28T00:36:27.046Z,0.80
2022-09-28T00:38:58.037Z,0.50
2022-09-28T00:41:29.501Z,0.47
2022-09-28T00:44:26.920Z,0.40
2022-09-28T00:47:07.043Z,0.40
2022-09-28T00:49:42.729Z,0.40
2022-09-28T00:52:13.500Z,0.50
2022-09-28T00:54:43.089Z,0.40
2022-09-28T00:57:09.942Z,0.40
2022-09-28T00:59:36.657Z,0.50
2022-09-28T01:02:03.724Z,0.50
2022-09-28T01:04:31.593Z,0.40
2022-09-28T01:07:00.036Z,0.40
2022-09-28T01:09:27.625Z,0.50
2022-09-28T01:11:55.086Z,0.40
2022-09-28T01:14:25.497Z,0.40
2022-09-28T01:17:10.285Z,0.40
2022-09-28T01:20:01.373Z,0.50
2022-09-28T01:23:18.917Z,0.40
2022-09-28T01:25:57.420Z,0.70
2022-09-28T01:28:27.924Z,0.47
2022-09-28T01:31:09.506Z,0.60
2022-09-28T01:33:44.890Z,0.50
2022-09-28T01:36:26.543Z,0.80
2022-09-28T01:38:59.896Z,0.40
2022-09-28T01:41:30.059Z,0.50
2022-09-28T01:44:02.769Z,0.60
2022-09-28T01:46:44.685Z,0.50
2022-09-28T01:49:15.075Z,0.40
2022-09-28T01:51:51.133Z,0.50
2022-09-28T01:54:41.090Z,0.90
2022-09-28T01:57:32.315Z,0.50
2022-09-28T02:00:11.833Z,2.00
2022-09-28T02:02:55.551Z,0.40
2022-09-28T02:05:25.819Z,0.50
2022-09-28T02:08:02.558Z,0.50
2022-09-28T02:10:40.706Z,0.40
2022-09-28T02:13:13.969Z,0.50
2022-09-28T02:15:48.848Z,0.87
2022-09-28T02:18:15.559Z,0.50
2022-09-28T02:20:47.452Z,0.50
2022-09-28T02:23:16.156Z,0.47
2022-09-28T02:25:45.569Z,0.40
2022-09-28T02:28:16.036Z,0.47
2022-09-28T02:30:44.406Z,0.47
2022-09-28T02:33:19.790Z,1.30
2022-09-28T02:35:46.727Z,0.60
2022-09-28T02:38:14.935Z,0.40
2022-09-28T02:40:47.931Z,0.53
2022-09-28T02:43:24.141Z,0.50
2022-09-28T02:46:17.765Z,0.40
2022-09-28T02:49:19.900Z,0.50
2022-09-28T02:52:23.182Z,0.40
2022-09-28T02:55:44.834Z,0.90
2022-09-28T02:58:39.143Z,0.50
2022-09-28T03:01:43.027Z,0.50
2022-09-28T03:04:25.055Z,0.40
2022-09-28T03:07:17.737Z,0.40
2022-09-28T03:10:02.630Z,0.50
2022-09-28T03:12:29.953Z,0.50
2022-09-28T03:15:26.445Z,0.50
2022-09-28T03:17:53.594Z,0.50
2022-09-28T03:20:20.809Z,0.60
2022-09-28T03:23:06.070Z,0.47
2022-09-28T03:25:33.982Z,0.43
2022-09-28T03:28:00.755Z,0.50
2022-09-28T03:30:27.680Z,0.50
2022-09-28T03:32:58.536Z,0.50
2022-09-28T03:35:25.154Z,1.77
2022-09-28T03:37:57.947Z,0.70
2022-09-28T03:40:25.616Z,0.40
2022-09-28T03:42:52.235Z,0.50
2022-09-28T03:45:18.783Z,0.50
2022-09-28T03:47:46.852Z,0.50
2022-09-28T03:50:14.287Z,0.50
2022-09-28T03:52:40.944Z,0.70
2022-09-28T03:55:07.839Z,0.40
2022-09-28T03:57:34.559Z,0.93
2022-09-28T04:00:01.398Z,22.10
2022-09-28T04:02:28.037Z,11.90
2022-09-28T04:04:54.653Z,7.60
2022-09-28T04:07:21.207Z,1.20
2022-09-28T04:09:47.742Z,1.17
2022-09-28T04:12:14.410Z,0.77
2022-09-28T04:14:40.980Z,0.90
2022-09-28T04:17:07.582Z,1.00
2022-09-28T04:19:34.171Z,0.40
2022-09-28T04:22:01.858Z,0.50
2022-09-28T04:24:28.454Z,1.43
2022-09-28T04:27:14.982Z,0.90
2022-09-28T04:29:41.623Z,0.50
2022-09-28T04:32:08.266Z,0.90
2022-09-28T04:34:37.903Z,0.50
2022-09-28T04:37:06.236Z,0.50
2022-09-28T04:39:32.871Z,0.40
2022-09-28T04:41:59.848Z,1.23
2022-09-28T04:44:26.461Z,0.70
2022-09-28T04:46:55.820Z,0.93
2022-09-28T04:49:24.310Z,0.90
2022-09-28T04:51:51.064Z,0.70
2022-09-28T04:54:17.714Z,0.73
2022-09-28T04:56:44.911Z,0.50
2022-09-28T04:59:12.703Z,1.83
2022-09-28T05:01:39.438Z,0.80
2022-09-28T05:04:06.160Z,0.50
2022-09-28T05:06:32.899Z,0.50
2022-09-28T05:08:59.469Z,0.50
2022-09-28T05:11:26.121Z,0.50
2022-09-28T05:13:52.684Z,0.50
2022-09-28T05:16:20.233Z,0.50
2022-09-28T05:18:47.282Z,0.80
2022-09-28T05:21:15.826Z,0.60
2022-09-28T05:23:46.933Z,0.90
2022-09-28T05:26:14.150Z,0.50
2022-09-28T05:28:40.693Z,0.50
2022-09-28T05:31:07.269Z,0.55
2022-09-28T05:33:34.245Z,0.50
2022-09-28T05:36:01.914Z,0.60
2022-09-28T05:38:29.824Z,0.50
2022-09-28T05:40:56.792Z,0.50
2022-09-28T05:43:23.858Z,1.33
2022-09-28T05:45:55.277Z,0.63
2022-09-28T05:48:22.988Z,0.50
2022-09-28T05:50:53.187Z,0.50
2022-09-28T05:53:20.390Z,0.88
2022-09-28T05:55:47.274Z,0.50
2022-09-28T05:58:14.276Z,0.40
2022-09-28T06:00:40.875Z,0.80
2022-09-28T06:03:13.213Z,0.80
2022-09-28T06:05:39.988Z,0.50
2022-09-28T06:08:10.181Z,0.60
2022-09-28T06:10:37.272Z,0.52
2022-09-28T06:13:04.016Z,0.60
2022-09-28T06:15:33.617Z,0.73
2022-09-28T06:18:05.002Z,0.50
2022-09-28T06:20:34.806Z,0.50
2022-09-28T06:23:01.442Z,0.90
2022-09-28T06:25:28.046Z,0.50
2022-09-28T06:27:59.667Z,1.00
2022-09-28T06:30:28.493Z,0.40
2022-09-28T06:32:56.908Z,0.60
2022-09-28T06:35:25.378Z,0.70
2022-09-28T06:37:52.706Z,0.50
2022-09-28T06:40:20.316Z,0.73
2022-09-28T06:43:09.806Z,0.97
2022-09-28T06:45:37.826Z,0.80
2022-09-28T06:48:05.448Z,0.50
2022-09-28T06:50:34.761Z,0.82
2022-09-28T06:53:02.123Z,1.30
2022-09-28T06:55:29.219Z,0.50
2022-09-28T06:58:03.986Z,0.98
2022-09-28T07:00:34.795Z,0.50
2022-09-28T07:03:07.542Z,0.50
2022-09-28T07:05:36.803Z,0.60
2022-09-28T07:08:06.295Z,8.65
2022-09-28T07:10:33.746Z,6.78
2022-09-28T07:13:03.382Z,1.60
2022-09-28T07:15:30.875Z,0.50
2022-09-28T07:18:03.546Z,0.70
2022-09-28T07:20:34.137Z,0.60
2022-09-28T07:23:16.957Z,0.47
2022-09-28T07:25:47.686Z,0.40
2022-09-28T07:28:15.305Z,0.50
2022-09-28T07:30:42.558Z,0.50
2022-09-28T07:33:12.495Z,0.80
2022-09-28T07:35:39.365Z,0.70
2022-09-28T07:38:08.095Z,0.75
2022-09-28T07:40:55.024Z,0.40
2022-09-28T07:43:22.299Z,0.80
2022-09-28T07:45:52.300Z,0.40
2022-09-28T07:48:18.987Z,0.40
2022-09-28T07:50:53.614Z,0.50
2022-09-28T07:53:21.810Z,0.50
2022-09-28T07:55:56.303Z,0.83
2022-09-28T07:58:23.265Z,0.83
2022-09-28T08:00:50.684Z,2.03
2022-09-28T08:03:18.691Z,1.10
2022-09-28T08:05:46.786Z,1.10
2022-09-28T08:08:14.327Z,1.90
2022-09-28T08:10:47.301Z,0.50
2022-09-28T08:13:15.184Z,0.50
2022-09-28T08:15:42.553Z,0.50
2022-09-28T08:18:09.783Z,0.70
2022-09-28T08:20:55.337Z,0.60
2022-09-28T08:23:23.144Z,0.50
2022-09-28T08:25:52.411Z,0.73
2022-09-28T08:28:19.410Z,0.50
2022-09-28T08:30:47.955Z,0.40
2022-09-28T08:33:17.437Z,1.60
2022-09-28T08:35:45.939Z,0.40
2022-09-28T08:38:13.529Z,0.40
2022-09-28T08:41:02.495Z,0.50
2022-09-28T08:44:03.263Z,0.40
2022-09-28T08:46:35.743Z,0.50
2022-09-28T08:49:24.960Z,0.50
2022-09-28T08:52:00.644Z,0.40
2022-09-28T08:54:44.423Z,0.40
2022-09-28T08:57:17.989Z,0.43
2022-09-28T08:59:53.261Z,0.50
2022-09-28T09:02:33.384Z,0.40
2022-09-28T09:05:06.254Z,0.40
2022-09-28T09:07:45.252Z,0.40
2022-09-28T09:10:18.401Z,0.40
2022-09-28T09:13:00.814Z,0.50
2022-09-28T09:15:47.622Z,0.50
2022-09-28T09:18:16.657Z,0.50
2022-09-28T09:20:50.357Z,0.50
2022-09-28T09:23:39.091Z,0.50
2022-09-28T09:26:24.892Z,0.47
2022-09-28T09:29:07.727Z,0.50
2022-09-28T09:31:50.223Z,0.80
2022-09-28T09:34:25.438Z,1.33
2022-09-28T09:37:12.255Z,0.60
2022-09-28T09:39:53.640Z,0.50
2022-09-28T09:42:43.072Z,0.50
2022-09-28T09:45:16.250Z,0.60
2022-09-28T09:47:54.735Z,0.60
2022-09-28T09:50:35.171Z,0.40
2022-09-28T09:53:44.457Z,0.67
2022-09-28T09:56:20.552Z,0.43
2022-09-28T09:58:53.494Z,2.70
2022-09-28T10:01:31.325Z,0.50
2022-09-28T10:03:58.902Z,0.50
2022-09-28T10:06:30.649Z,0.60
2022-09-28T10:09:24.846Z,0.50
2022-09-28T10:11:51.912Z,0.40
2022-09-28T10:14:24.039Z,0.50
2022-09-28T10:16:53.549Z,0.50
2022-09-28T10:19:25.603Z,0.50
2022-09-28T10:21:52.842Z,0.50
2022-09-28T10:24:32.740Z,0.50
2022-09-28T10:27:08.409Z,0.50
2022-09-28T10:29:49.475Z,0.50
2022-09-28T10:32:25.519Z,0.97
2022-09-28T10:34:54.868Z,1.80
2022-09-28T10:37:22.310Z,0.50
2022-09-28T10:39:55.163Z,0.50
2022-09-28T10:42:33.459Z,0.50
2022-09-28T10:45:23.126Z,0.50
2022-09-28T10:47:50.224Z,0.50
2022-09-28T10:50:25.570Z,0.40
2022-09-28T10:52:52.172Z,0.40
2022-09-28T10:55:21.690Z,0.40
2022-09-28T10:57:48.574Z,0.60
2022-09-28T11:00:59.604Z,0.50
2022-09-28T11:03:28.647Z,0.70
2022-09-28T11:06:01.388Z,0.40
2022-09-28T11:08:49.438Z,0.50
2022-09-28T11:11:17.438Z,0.50
2022-09-28T11:13:52.248Z,0.40
2022-09-28T11:16:31.272Z,0.40
2022-09-28T11:19:03.544Z,0.50
2022-09-28T11:21:40.287Z,0.73
2022-09-28T11:24:19.728Z,0.50
2022-09-28T11:26:52.864Z,0.70
2022-09-28T11:29:22.561Z,0.50
2022-09-28T11:31:49.614Z,0.50
2022-09-28T11:34:57.619Z,0.50
2022-09-28T11:37:39.080Z,0.50
2022-09-28T11:40:23.329Z,0.50
2022-09-28T11:43:00.664Z,0.40
2022-09-28T11:45:45.458Z,0.50
2022-09-28T11:48:20.953Z,0.50
2022-09-28T11:50:56.945Z,0.57
2022-09-28T11:53:31.371Z,0.40
2022-09-28T11:56:18.980Z,0.50
2022-09-28T11:58:55.593Z,0.40
2022-09-28T12:01:37.497Z,0.40
2022-09-28T12:04:11.917Z,0.50
2022-09-28T12:06:45.869Z,0.70
2022-09-28T12:09:28.536Z,0.40
2022-09-28T12:12:01.117Z,0.50
2022-09-28T12:14:32.637Z,0.50
2022-09-28T12:17:20.260Z,0.40
2022-09-28T12:20:16.561Z,0.50
2022-09-28T12:22:49.578Z,0.50
2022-09-28T12:25:21.029Z,0.40
2022-09-28T12:27:53.524Z,0.50
2022-09-28T12:30:21.164Z,0.50
2022-09-28T12:33:05.192Z,0.40
2022-09-28T12:35:59.372Z,0.50
2022-09-28T12:39:14.868Z,0.40
2022-09-28T12:42:02.496Z,0.40
2022-09-28T12:44:45.521Z,0.60
2022-09-28T12:47:26.937Z,0.50
2022-09-28T12:53:14.847Z,0.40
2022-09-28T12:55:56.557Z,0.50
2022-09-28T12:58:52.071Z,0.50
2022-09-28T13:01:30.489Z,0.40
2022-09-28T13:04:12.752Z,0.60
2022-09-28T13:06:56.131Z,0.40
2022-09-28T13:09:25.495Z,0.50
2022-09-28T13:12:13.684Z,0.40
2022-09-28T13:14:53.086Z,0.53
2022-09-28T13:17:47.295Z,0.60
2022-09-28T13:20:35.768Z,0.40
2022-09-28T13:23:11.639Z,0.50
2022-09-28T13:25:44.275Z,3.03
2022-09-28T13:28:15.447Z,2.00
2022-09-28T13:30:45.048Z,1.93
2022-09-28T13:33:20.309Z,0.73
2022-09-28T13:35:46.952Z,0.60
2022-09-28T13:38:16.337Z,0.40
2022-09-28T13:41:06.132Z,0.40
2022-09-28T13:44:03.883Z,0.50
2022-09-28T13:46:36.687Z,0.43
2022-09-28T13:49:21.563Z,0.40
2022-09-28T13:52:11.297Z,0.60
2022-09-28T13:54:59.881Z,0.43
2022-09-28T13:57:41.609Z,0.40
2022-09-28T14:00:19.086Z,0.43
2022-09-28T14:02:58.781Z,0.50
2022-09-28T14:05:48.989Z,1.50
2022-09-28T14:08:44.378Z,0.90
2022-09-28T14:11:34.812Z,1.13
2022-09-28T14:14:11.793Z,0.50
2022-09-28T14:16:40.119Z,0.93
2022-09-28T14:19:24.503Z,2.60
2022-09-28T14:22:24.841Z,1.07
2022-09-28T14:25:03.635Z,0.73
2022-09-28T14:27:48.774Z,1.00
2022-09-28T14:30:18.751Z,0.40
2022-09-28T14:32:52.731Z,0.40
2022-09-28T14:35:38.877Z,0.90
2022-09-28T14:38:36.427Z,0.40
2022-09-28T14:41:34.506Z,0.40
2022-09-28T14:44:01.209Z,0.50
2022-09-28T14:46:31.906Z,0.50
2022-09-28T14:49:03.638Z,0.50
2022-09-28T14:51:30.240Z,0.40
2022-09-28T14:54:02.680Z,0.50
2022-09-28T14:56:33.080Z,1.03
2022-09-28T14:59:00.551Z,0.50
2022-09-28T15:01:27.788Z,0.47
2022-09-28T15:03:58.927Z,0.40
2022-09-28T15:06:27.609Z,0.50
2022-09-28T15:08:54.273Z,0.50
2022-09-28T15:11:23.789Z,0.40
2022-09-28T15:13:53.856Z,0.70
2022-09-28T15:16:24.037Z,0.40
2022-09-28T15:19:09.437Z,0.40
2022-09-28T15:21:39.530Z,0.40
2022-09-28T15:24:25.574Z,0.40
2022-09-28T15:26:53.082Z,0.70
2022-09-28T15:29:21.022Z,0.60
2022-09-28T15:31:52.215Z,0.50
2022-09-28T15:34:52.102Z,0.47
2022-09-28T15:37:24.003Z,0.50
2022-09-28T15:39:52.201Z,0.40
2022-09-28T15:42:19.722Z,0.50
2022-09-28T15:45:26.766Z,0.40
2022-09-28T15:48:24.401Z,0.40
2022-09-28T15:51:18.939Z,0.50
2022-09-28T15:54:23.740Z,1.17
2022-09-28T15:56:56.824Z,0.50
2022-09-28T15:59:32.953Z,0.93
2022-09-28T16:02:19.222Z,0.60
2022-09-28T16:04:48.028Z,0.40
2022-09-28T16:07:20.873Z,0.63
2022-09-28T16:10:06.261Z,0.50
2022-09-28T16:12:47.981Z,0.80
2022-09-28T16:15:26.078Z,0.50
2022-09-28T16:17:56.509Z,0.97
2022-09-28T16:20:42.401Z,0.73
2022-09-28T16:23:23.976Z,0.77
2022-09-28T16:26:17.256Z,0.50
2022-09-28T16:28:48.711Z,1.23
2022-09-28T16:31:15.461Z,0.50
2022-09-28T16:33:58.807Z,0.87
2022-09-28T16:36:29.653Z,0.50
2022-09-28T16:38:56.581Z,0.40
2022-09-28T16:41:27.120Z,0.50
2022-09-28T16:44:02.010Z,1.53
2022-09-28T16:46:34.804Z,0.63
2022-09-28T16:49:02.923Z,0.63
2022-09-28T16:51:29.511Z,0.80
2022-09-28T16:54:29.815Z,0.50
2022-09-28T16:56:56.374Z,1.10
2022-09-28T16:59:23.057Z,0.50
2022-09-28T17:01:49.695Z,0.50
2022-09-28T17:04:16.302Z,0.50
2022-09-28T17:06:43.509Z,0.50
2022-09-28T17:09:13.632Z,0.60
2022-09-28T17:11:40.366Z,1.67
2022-09-28T17:14:07.040Z,0.50
2022-09-28T17:17:06.153Z,0.50
2022-09-28T17:19:23.676Z,0.50
2022-09-28T17:21:51.659Z,1.70
2022-09-28T17:24:19.536Z,0.53
2022-09-28T17:26:48.968Z,0.50
2022-09-28T17:29:16.050Z,0.40
2022-09-28T17:31:44.121Z,0.50
2022-09-28T17:34:12.596Z,1.17
2022-09-28T17:36:41.496Z,8.80
2022-09-28T17:39:13.348Z,4.57
2022-09-28T17:41:40.987Z,4.43
2022-09-28T17:44:07.849Z,5.40
2022-09-28T17:46:36.881Z,18.50
2022-09-28T17:49:05.532Z,13.83
2022-09-28T17:51:34.906Z,8.30
2022-09-28T17:54:02.021Z,1.67
2022-09-28T17:56:32.095Z,1.03
2022-09-28T17:59:01.264Z,1.33
2022-09-28T18:01:33.659Z,0.50
2022-09-28T18:04:02.738Z,0.50
2022-09-28T18:06:29.438Z,0.67
2022-09-28T18:08:56.060Z,0.70
2022-09-28T18:11:22.862Z,0.50
2022-09-28T18:13:49.428Z,0.50
2022-09-28T18:16:16.671Z,0.50
2022-09-28T18:18:43.397Z,0.40
2022-09-28T18:21:10.034Z,0.73
2022-09-28T18:23:37.782Z,0.50
2022-09-28T18:26:10.325Z,0.70
2022-09-28T18:28:36.885Z,0.60
2022-09-28T18:31:08.842Z,0.57
2022-09-28T18:33:36.514Z,0.70
2022-09-28T18:36:04.651Z,0.50
2022-09-28T18:38:31.692Z,0.40
2022-09-28T18:41:10.317Z,1.37
2022-09-28T18:43:37.332Z,0.80
2022-09-28T18:46:11.285Z,1.00
2022-09-28T18:48:38.411Z,0.73
2022-09-28T18:51:08.843Z,1.03
2022-09-28T18:53:36.217Z,0.60
2022-09-28T18:56:10.808Z,0.50
2022-09-28T18:58:39.766Z,0.60
2022-09-28T19:01:33.826Z,0.93
2022-09-28T19:04:06.565Z,1.30
2022-09-28T19:06:34.409Z,0.50
2022-09-28T19:09:01.427Z,0.60
2022-09-28T19:11:28.736Z,0.73
2022-09-28T19:13:56.021Z,0.60
2022-09-28T19:16:28.640Z,0.50
2022-09-28T19:18:59.210Z,0.40
2022-09-28T19:21:26.649Z,0.50
2022-09-28T19:23:55.213Z,0.63
2022-09-28T19:26:27.270Z,0.70
2022-09-28T19:28:55.581Z,0.50
2022-09-28T19:31:23.041Z,0.70
2022-09-28T19:33:50.344Z,0.50
2022-09-28T19:36:21.728Z,0.87
2022-09-28T19:38:48.319Z,0.80
2022-09-28T19:41:39.094Z,0.90
2022-09-28T19:44:11.266Z,1.00
2022-09-28T19:46:39.393Z,0.60
2022-09-28T19:49:09.639Z,0.40
2022-09-28T19:51:46.937Z,0.90
2022-09-28T19:54:30.214Z,0.60
2022-09-28T19:56:59.863Z,0.60
2022-09-28T19:59:26.610Z,0.90
2022-09-28T20:01:56.130Z,0.90
2022-09-28T20:04:23.137Z,0.50
2022-09-28T20:06:52.317Z,0.53
2022-09-28T20:09:19.224Z,1.43
2022-09-28T20:11:46.678Z,0.50
2022-09-28T20:14:18.408Z,0.68
2022-09-28T20:16:46.196Z,0.50
2022-09-28T20:19:13.138Z,0.50
2022-09-28T20:21:39.797Z,0.70
2022-09-28T20:24:06.409Z,0.40
2022-09-28T20:26:37.672Z,0.60
2022-09-28T20:29:06.566Z,0.50
2022-09-28T20:31:36.208Z,0.70
2022-09-28T20:34:04.491Z,1.00
2022-09-28T20:36:31.911Z,0.75
2022-09-28T20:39:01.704Z,0.50
2022-09-28T20:41:35.393Z,0.50
2022-09-28T20:44:05.715Z,0.50
2022-09-28T20:46:34.070Z,0.60
2022-09-28T20:49:00.787Z,0.50
2022-09-28T20:51:27.631Z,0.83
2022-09-28T20:53:56.251Z,0.63
2022-09-28T20:56:38.599Z,0.63
2022-09-28T20:59:10.959Z,0.40
2022-09-28T21:01:37.606Z,0.50
2022-09-28T21:04:06.666Z,0.50
2022-09-28T21:06:35.720Z,0.40
2022-09-28T21:09:03.456Z,0.50
2022-09-28T21:11:30.436Z,1.30
2022-09-28T21:13:59.279Z,1.33
2022-09-28T21:16:28.974Z,0.50
2022-09-28T21:18:55.582Z,0.50
2022-09-28T21:21:23.557Z,0.60
2022-09-28T21:23:57.368Z,0.50
2022-09-28T21:26:29.283Z,0.53
2022-09-28T21:29:00.851Z,0.50
2022-09-28T21:31:36.476Z,1.00
2022-09-28T21:34:04.624Z,1.07
2022-09-28T21:36:32.029Z,0.70
2022-09-28T21:38:58.632Z,0.50
2022-09-28T21:41:25.629Z,0.40
2022-09-28T21:43:52.703Z,0.50
2022-09-28T21:46:19.415Z,0.50
2022-09-28T21:48:45.992Z,0.50
2022-09-28T21:51:15.631Z,0.50
2022-09-28T21:53:42.662Z,0.50
2022-09-28T21:56:12.196Z,0.40
2022-09-28T21:58:39.963Z,0.80
2022-09-28T22:01:12.962Z,0.53
2022-09-28T22:03:39.642Z,0.50
2022-09-28T22:06:07.211Z,0.60
2022-09-28T22:08:34.711Z,0.60
2022-09-28T22:11:06.737Z,0.40
2022-09-28T22:13:43.408Z,0.80
2022-09-28T22:16:11.451Z,1.00
2022-09-28T22:18:38.419Z,0.80
2022-09-28T22:21:12.332Z,0.70
2022-09-28T22:23:39.971Z,0.70
2022-09-28T22:26:10.691Z,0.40
2022-09-28T22:28:38.427Z,0.50
2022-09-28T22:31:05.374Z,0.40
2022-09-28T22:33:32.025Z,0.47
2022-09-28T22:35:58.571Z,0.60
2022-09-28T22:38:25.385Z,0.50
2022-09-28T22:40:55.934Z,0.50
2022-09-28T22:43:23.989Z,0.60
2022-09-28T22:45:59.984Z,0.40
2022-09-28T22:48:26.663Z,0.50
2022-09-28T22:50:53.205Z,0.50
2022-09-28T22:53:19.981Z,1.05
2022-09-28T22:55:46.542Z,0.50
2022-09-28T22:58:13.660Z,0.53
2022-09-28T23:00:40.454Z,0.50
2022-09-28T23:03:07.111Z,0.73
2022-09-28T23:05:33.716Z,0.40
2022-09-28T23:08:00.778Z,0.50
2022-09-28T23:10:27.449Z,0.40
2022-09-28T23:12:54.767Z,0.50
2022-09-28T23:15:22.607Z,0.50
2022-09-28T23:17:52.748Z,0.67
2022-09-28T23:20:20.463Z,0.50
2022-09-28T23:22:48.421Z,0.60
2022-09-28T23:25:16.279Z,0.50
2022-09-28T23:27:50.526Z,0.57
2022-09-28T23:30:19.013Z,0.50
2022-09-28T23:32:46.188Z,0.50
2022-09-28T23:35:14.213Z,0.50
2022-09-28T23:37:40.817Z,0.80
2022-09-28T23:40:07.867Z,0.43
2022-09-28T23:42:35.358Z,0.40
2022-09-28T23:45:02.010Z,0.40
2022-09-28T23:47:28.615Z,0.70
2022-09-28T23:49:55.154Z,0.95
2022-09-28T23:52:21.721Z,0.70
2022-09-28T23:54:48.270Z,1.00
2022-09-28T23:57:14.819Z,0.40
2022-09-28T23:59:41.489Z,0.43
